Terminal Aerodrome Forecast
Issued by NWS

Home | Current Version | Previous Version | Text Only | Print | Product List | Glossary On
Versions: 1 2 3 4 5 6 7 8 9 10 11 12 13 14 15 16 17 18
000
FTUS46 KMTR 242342
TAFOAK
TAF
KOAK 242342Z 2500/2606 26014G19KT P6SM FEW020 BKN030 OVC100
     FM250300 26012KT P6SM VCSH BKN025 OVC080
     FM250600 24010KT P6SM VCSH OVC020
     FM251500 19008KT P6SM VCSH SCT025 BKN035 BKN050
     FM252000 22006KT P6SM VCSH BKN035 BKN050
     FM260000 27008KT P6SM SCT035 BKN050=

USA.gov is the U.S. government's official web portal to all federal, state and local government web resources and services.